

Wyoming Mesonet
Water Resources Data System and State Climate Office
SEO WACNet, UW USACE UMRB, USDA-ARS, BLM
| Wind | Soil | |||||||||||||||||||
| Temp | Precip | Speed | Dir | Gust | Dir | Humidity | Pressure | Solar | Snow | Temperature (Deg F) | Moisture (%) | |||||||||
| Date Time (MST) | (F) | (in) | (mph) | (deg) | (mph) | (deg) | (%) | (Mbars) | (w/m^2) | (in) | 5cm | 10cm | 20cm | 50cm | 1m | 5cm | 10cm | 20cm | 50cm | 1m |
| 2026-08-30 00:00:00 | 63.95 | 0.00 | 10.31 | 266 | 12.30 | 257 | 71.4 | 877.0 | 0.0 | -0.5 | 76.10 | 76.64 | 76.10 | 72.32 | 68.36 | 3.1% | 14.0% | 18.8% | 11.5% | 5.8% |
| 2026-08-30 01:00:00 | 62.83 | 0.00 | 8.84 | 255 | 10.93 | 267 | 76.6 | 877.0 | 0.0 | -0.6 | 75.02 | 75.92 | 76.10 | 72.32 | 68.36 | 3.1% | 14.0% | 18.7% | 11.5% | 5.8% |
| 2026-08-30 02:00:00 | 62.94 | 0.00 | 4.47 | 259 | 10.56 | 258 | 74.4 | 877.0 | 0.0 | -0.9 | 74.12 | 75.20 | 75.92 | 72.32 | 68.36 | 3.0% | 14.0% | 18.8% | 11.6% | 5.8% |
| 2026-08-30 03:00:00 | 58.05 | 0.00 | 1.80 | 139 | 7.70 | 266 | 85.8 | 877.0 | 0.0 | -0.5 | 73.04 | 74.48 | 75.56 | 72.50 | 68.36 | 3.0% | 14.0% | 18.7% | 11.7% | 5.8% |
| 2026-08-30 04:00:00 | 58.41 | 0.00 | 4.32 | 235 | 7.70 | 177 | 86.7 | 878.0 | 0.0 | -0.4 | 71.96 | 73.76 | 75.38 | 72.32 | 68.36 | 3.0% | 14.0% | 18.6% | 11.6% | 5.8% |
| 2026-08-30 05:00:00 | 57.27 | 0.00 | 1.57 | 222 | 8.20 | 237 | 89.8 | 877.0 | 0.0 | -0.6 | 71.24 | 73.04 | 75.20 | 72.50 | 68.18 | 3.0% | 14.0% | 18.6% | 11.6% | 5.8% |
| 2026-08-30 06:00:00 | 60.57 | 0.00 | 5.08 | 212 | 6.09 | 236 | 81.6 | 878.0 | 80.3 | -0.6 | 70.52 | 72.50 | 75.02 | 72.50 | 68.36 | 2.9% | 14.0% | 18.4% | 11.6% | 5.8% |
| 2026-08-30 07:00:00 | 64.49 | 0.00 | 6.47 | 187 | 8.94 | 183 | 67.0 | 879.0 | 263.5 | -0.4 | 70.52 | 72.14 | 74.66 | 72.50 | 68.36 | 3.0% | 13.9% | 18.6% | 11.6% | 5.8% |
| 2026-08-30 08:00:00 | 72.54 | 0.00 | 9.08 | 200 | 12.80 | 206 | 51.7 | 879.0 | 424.5 | -0.4 | 71.42 | 72.14 | 74.30 | 72.50 | 68.36 | 3.0% | 13.9% | 18.5% | 11.6% | 5.8% |
| 2026-08-30 09:00:00 | 75.74 | 0.00 | 7.41 | 242 | 12.55 | 209 | 46.5 | 878.0 | 598.8 | -0.2 | 73.04 | 72.50 | 74.12 | 72.50 | 68.36 | 3.1% | 13.9% | 18.3% | 11.6% | 5.8% |
| 2026-08-30 10:00:00 | 80.85 | 0.00 | 7.18 | 183 | 12.05 | 265 | 40.3 | 879.0 | 729.1 | -0.2 | 76.10 | 73.58 | 73.94 | 72.32 | 68.36 | 3.1% | 13.9% | 18.4% | 11.6% | 5.8% |
| 2026-08-30 11:00:00 | 79.48 | 0.00 | 3.85 | 207 | 13.67 | 218 | 38.7 | 878.0 | 131.9 | -0.4 | 80.24 | 75.38 | 73.76 | 72.32 | 68.36 | 3.3% | 14.0% | 18.4% | 11.6% | 5.8% |
| 2026-08-30 12:00:00 | 81.59 | 0.00 | 11.00 | 203 | 17.76 | 256 | 32.8 | 878.0 | 352.0 | -0.3 | 81.86 | 76.82 | 73.76 | 72.32 | 68.36 | 3.3% | 14.0% | 18.4% | 11.6% | 5.8% |
| 2026-08-30 13:00:00 | 83.28 | 0.00 | 11.61 | 238 | 25.21 | 181 | 26.9 | 877.0 | 168.2 | -0.4 | 84.20 | 77.90 | 73.94 | 72.32 | 68.36 | 3.4% | 14.1% | 18.5% | 11.6% | 5.8% |
| 2026-08-30 14:00:00 | 56.68 | 0.04 | 35.84 | 324 | 70.20 | 333 | 84.2 | 880.0 | 295.6 | -0.7 | 84.20 | 78.98 | 74.30 | 72.32 | 68.36 | 3.3% | 14.1% | 18.6% | 11.6% | 5.8% |
| 2026-08-30 15:00:00 | 57.25 | 0.02 | 29.86 | 346 | 52.68 | 333 | 77.4 | 880.0 | 216.0 | -0.7 | 80.42 | 78.26 | 74.48 | 72.14 | 68.36 | 3.3% | 14.1% | 18.4% | 11.5% | 5.8% |
| 2026-08-30 16:00:00 | 63.36 | 0.00 | 5.23 | 347 | 36.89 | 337 | 67.7 | 880.0 | 617.5 | -0.4 | 77.90 | 77.00 | 74.84 | 72.14 | 68.36 | 3.2% | 14.1% | 18.7% | 11.6% | 5.8% |
| 2026-08-30 17:00:00 | 64.76 | 0.00 | 9.81 | 341 | 12.55 | 346 | 58.5 | 881.0 | 289.8 | -0.5 | 77.36 | 76.28 | 75.02 | 72.14 | 68.36 | 3.2% | 14.0% | 18.5% | 11.5% | 5.7% |
| 2026-08-30 18:00:00 | 62.44 | 0.00 | 5.36 | 19 | 12.42 | 329 | 64.6 | 881.0 | 113.5 | -0.7 | 76.64 | 75.92 | 75.02 | 72.14 | 68.36 | 3.1% | 14.0% | 18.6% | 11.6% | 5.8% |
| 2026-08-30 19:00:00 | 56.23 | 0.00 | 0.36 | 102 | 5.09 | 5 | 72.5 | 880.0 | 0.0 | -0.7 | 75.02 | 75.20 | 75.02 | 72.14 | 68.36 | 3.1% | 14.0% | 18.5% | 11.5% | 5.8% |
| 2026-08-30 20:00:00 | 52.27 | 0.00 | 2.07 | 322 | 4.47 | 317 | 83.7 | 881.0 | 0.0 | -0.8 | 73.04 | 74.12 | 74.84 | 72.14 | 68.36 | 3.0% | 14.0% | 18.5% | 11.6% | 5.8% |
| 2026-08-30 21:00:00 | 50.09 | 0.00 | 2.40 | 317 | 5.34 | 313 | 85.7 | 881.0 | 0.0 | -0.9 | 71.24 | 73.04 | 74.84 | 72.14 | 68.36 | 3.1% | 13.9% | 18.6% | 11.6% | 5.8% |
| 2026-08-30 22:00:00 | 49.66 | 0.00 | 4.77 | 285 | 5.34 | 280 | 90.6 | 881.0 | 0.0 | -0.9 | 69.80 | 71.96 | 74.66 | 71.96 | 68.36 | 3.0% | 13.9% | 18.6% | 11.6% | 5.8% |
| 2026-08-30 23:00:00 | 49.78 | 0.00 | 1.32 | 238 | 5.22 | 256 | 90.6 | 881.0 | 0.0 | -1.0 | 68.54 | 71.06 | 74.30 | 72.14 | 68.36 | 2.9% | 13.8% | 18.5% | 11.5% | 5.8% |